createdAt,value
2023-03-05T00:00:12.139Z,1013.63
2023-03-05T00:01:12.173Z,1013.61
2023-03-05T00:02:12.120Z,1013.59
2023-03-05T00:03:12.174Z,1013.57
2023-03-05T00:04:12.103Z,1013.55
2023-03-05T00:05:12.124Z,1013.55
2023-03-05T00:06:12.086Z,1013.56
2023-03-05T00:07:12.081Z,1013.54
2023-03-05T00:08:12.055Z,1013.53
2023-03-05T00:09:12.077Z,1013.53
2023-03-05T00:10:12.022Z,1013.55
2023-03-05T00:11:12.064Z,1013.57
2023-03-05T00:12:12.002Z,1013.57
2023-03-05T00:13:12.021Z,1013.56
2023-03-05T00:14:12.015Z,1013.56
2023-03-05T00:15:11.987Z,1013.55
2023-03-05T00:16:12.092Z,1013.52
2023-03-05T00:17:11.982Z,1013.51
2023-03-05T00:18:11.938Z,1013.51
2023-03-05T00:19:11.960Z,1013.51
2023-03-05T00:20:11.917Z,1013.50
2023-03-05T00:21:11.929Z,1013.49
2023-03-05T00:22:11.892Z,1013.46
2023-03-05T00:23:11.923Z,1013.44
2023-03-05T00:24:11.871Z,1013.43
2023-03-05T00:25:11.899Z,1013.42
2023-03-05T00:26:11.906Z,1013.40
2023-03-05T00:27:11.861Z,1013.41
2023-03-05T00:28:11.843Z,1013.41
2023-03-05T00:29:11.865Z,1013.41
2023-03-05T00:30:11.824Z,1013.41
2023-03-05T00:31:11.863Z,1013.42
2023-03-05T00:32:11.816Z,1013.42
2023-03-05T00:33:11.802Z,1013.40
2023-03-05T00:34:11.794Z,1013.40
2023-03-05T00:35:11.826Z,1013.38
2023-03-05T00:36:11.752Z,1013.35
2023-03-05T00:37:11.763Z,1013.33
2023-03-05T00:38:11.725Z,1013.32
2023-03-05T00:39:11.792Z,1013.33
2023-03-05T00:40:11.800Z,1013.31
2023-03-05T00:41:11.746Z,1013.29
2023-03-05T00:42:11.700Z,1013.27
2023-03-05T00:43:11.694Z,1013.23
2023-03-05T00:44:11.665Z,1013.19
2023-03-05T00:45:11.688Z,1013.16
2023-03-05T00:46:11.695Z,1013.16
2023-03-05T00:47:11.658Z,1013.17
2023-03-05T00:48:11.653Z,1013.18
2023-03-05T00:49:11.622Z,1013.19
2023-03-05T00:50:11.629Z,1013.19
2023-03-05T00:51:11.599Z,1013.19
2023-03-05T00:52:11.610Z,1013.17
2023-03-05T00:53:11.605Z,1013.16
2023-03-05T00:54:11.579Z,1013.16
2023-03-05T00:55:11.555Z,1013.15
2023-03-05T00:56:11.563Z,1013.14
2023-03-05T00:57:11.534Z,1013.15
2023-03-05T00:58:11.574Z,1013.13
2023-03-05T00:59:11.526Z,1013.13
2023-03-05T01:00:11.523Z,1013.10
2023-03-05T01:01:11.497Z,1013.11
2023-03-05T01:02:11.494Z,1013.10
2023-03-05T01:03:11.463Z,1013.08
2023-03-05T01:04:11.475Z,1013.07
2023-03-05T01:05:11.568Z,1013.05
2023-03-05T01:06:11.447Z,1013.02
2023-03-05T01:07:11.417Z,1013.01
2023-03-05T01:08:11.422Z,1013.00
2023-03-05T01:09:11.422Z,1012.99
2023-03-05T01:10:11.402Z,1012.98
2023-03-05T01:11:11.407Z,1012.97
2023-03-05T01:12:11.380Z,1012.94
2023-03-05T01:13:11.345Z,1012.91
2023-03-05T01:14:11.374Z,1012.89
2023-03-05T01:15:11.360Z,1012.84
2023-03-05T01:16:11.417Z,1012.83
2023-03-05T01:17:11.338Z,1012.82
2023-03-05T01:18:11.324Z,1012.80
2023-03-05T01:19:11.285Z,1012.78
2023-03-05T01:20:11.336Z,1012.76
2023-03-05T01:21:11.261Z,1012.74
2023-03-05T01:22:11.268Z,1012.74
2023-03-05T01:23:11.260Z,1012.75
2023-03-05T01:24:11.381Z,1012.76
2023-03-05T01:25:11.210Z,1012.76
2023-03-05T01:26:11.224Z,1012.76
2023-03-05T01:27:11.213Z,1012.74
2023-03-05T01:28:11.212Z,1012.74
2023-03-05T01:29:11.193Z,1012.74
2023-03-05T01:30:11.201Z,1012.73
2023-03-05T01:31:11.218Z,1012.73
2023-03-05T01:32:11.179Z,1012.71
2023-03-05T01:33:11.136Z,1012.68
2023-03-05T01:34:11.143Z,1012.67
2023-03-05T01:35:11.188Z,1012.67
2023-03-05T01:36:11.126Z,1012.69
2023-03-05T01:37:11.093Z,1012.68
2023-03-05T01:38:11.110Z,1012.67
2023-03-05T01:39:11.089Z,1012.69
2023-03-05T01:40:11.095Z,1012.68
2023-03-05T01:41:11.333Z,1012.68
2023-03-05T01:42:11.056Z,1012.67
2023-03-05T01:43:11.029Z,1012.63
2023-03-05T01:44:11.055Z,1012.63
2023-03-05T01:45:11.018Z,1012.61
2023-03-05T01:46:11.075Z,1012.61
2023-03-05T01:47:11.005Z,1012.60
2023-03-05T01:48:10.990Z,1012.58
2023-03-05T01:49:10.977Z,1012.59
2023-03-05T01:50:10.982Z,1012.57
2023-03-05T01:51:11.104Z,1012.57
2023-03-05T01:52:10.953Z,1012.58
2023-03-05T01:53:10.954Z,1012.56
2023-03-05T01:54:10.935Z,1012.54
2023-03-05T01:55:10.903Z,1012.53
2023-03-05T01:56:10.928Z,1012.51
2023-03-05T01:57:10.892Z,1012.49
2023-03-05T01:58:10.896Z,1012.49
2023-03-05T01:59:10.881Z,1012.48
2023-03-05T02:00:10.870Z,1012.46
2023-03-05T02:01:10.879Z,1012.43
2023-03-05T02:02:10.847Z,1012.45
2023-03-05T02:03:10.850Z,1012.44
2023-03-05T02:04:10.901Z,1012.43
2023-03-05T02:05:10.822Z,1012.44
2023-03-05T02:06:10.804Z,1012.45
2023-03-05T02:07:10.787Z,1012.44
2023-03-05T02:08:10.788Z,1012.45
2023-03-05T02:09:10.765Z,1012.46
2023-03-05T02:10:10.786Z,1012.44
2023-03-05T02:11:10.757Z,1012.42
2023-03-05T02:12:10.758Z,1012.41
2023-03-05T02:13:10.716Z,1012.38
2023-03-05T02:14:10.732Z,1012.38
2023-03-05T02:15:10.690Z,1012.36
2023-03-05T02:16:10.748Z,1012.34
2023-03-05T02:17:10.692Z,1012.32
2023-03-05T02:18:10.691Z,1012.33
2023-03-05T02:19:10.653Z,1012.34
2023-03-05T02:20:10.662Z,1012.32
2023-03-05T02:21:10.672Z,1012.31
2023-03-05T02:22:10.647Z,1012.29
2023-03-05T02:23:10.642Z,1012.30
2023-03-05T02:24:10.650Z,1012.26
2023-03-05T02:25:10.615Z,1012.27
2023-03-05T02:26:10.628Z,1012.25
2023-03-05T02:27:10.571Z,1012.22
2023-03-05T02:28:10.583Z,1012.21
2023-03-05T02:29:10.579Z,1012.21
2023-03-05T02:30:10.561Z,1012.19
2023-03-05T02:31:10.556Z,1012.18
2023-03-05T02:32:10.678Z,1012.18
2023-03-05T02:33:10.511Z,1012.16
2023-03-05T02:34:10.527Z,1012.14
2023-03-05T02:35:10.531Z,1012.14
2023-03-05T02:36:10.500Z,1012.11
2023-03-05T02:37:10.497Z,1012.11
2023-03-05T02:38:10.479Z,1012.08
2023-03-05T02:39:10.449Z,1012.08
2023-03-05T02:40:10.476Z,1012.06
2023-03-05T02:41:10.442Z,1012.04
2023-03-05T02:42:10.450Z,1012.03
2023-03-05T02:43:10.402Z,1012.03
2023-03-05T02:44:10.426Z,1012.02
2023-03-05T02:45:10.379Z,1012.01
2023-03-05T02:46:10.477Z,1012.01
2023-03-05T02:47:10.390Z,1012.01
2023-03-05T02:48:10.393Z,1011.99
2023-03-05T02:49:10.337Z,1011.98
2023-03-05T02:50:10.366Z,1011.96
2023-03-05T02:51:10.341Z,1011.95
2023-03-05T02:52:10.335Z,1011.94
2023-03-05T02:53:10.318Z,1011.93
2023-03-05T02:54:10.327Z,1011.91
2023-03-05T02:55:10.284Z,1011.94
2023-03-05T02:56:10.300Z,1011.91
2023-03-05T02:57:10.262Z,1011.89
2023-03-05T02:58:10.273Z,1011.90
2023-03-05T02:59:10.277Z,1011.90
2023-03-05T03:00:10.384Z,1011.89
2023-03-05T03:01:10.405Z,1011.88
2023-03-05T03:02:10.266Z,1011.87
2023-03-05T03:03:10.293Z,1011.86
2023-03-05T03:04:10.207Z,1011.85
2023-03-05T03:05:10.264Z,1011.84
2023-03-05T03:06:10.212Z,1011.83
2023-03-05T03:07:10.208Z,1011.81
2023-03-05T03:08:10.228Z,1011.79
2023-03-05T03:09:10.192Z,1011.77
2023-03-05T03:10:10.201Z,1011.74
2023-03-05T03:11:10.235Z,1011.72
2023-03-05T03:12:10.150Z,1011.72
2023-03-05T03:13:10.132Z,1011.71
2023-03-05T03:14:10.109Z,1011.71
2023-03-05T03:15:10.102Z,1011.69
2023-03-05T03:16:10.132Z,1011.69
2023-03-05T03:17:10.120Z,1011.68
2023-03-05T03:18:10.069Z,1011.69
2023-03-05T03:19:10.037Z,1011.67
2023-03-05T03:20:10.045Z,1011.66
2023-03-05T03:21:10.020Z,1011.66
2023-03-05T03:22:10.036Z,1011.64
2023-03-05T03:23:10.040Z,1011.63
2023-03-05T03:24:10.019Z,1011.61
2023-03-05T03:25:09.976Z,1011.60
2023-03-05T03:26:09.988Z,1011.57
2023-03-05T03:27:09.983Z,1011.56
2023-03-05T03:28:09.979Z,1011.53
2023-03-05T03:29:09.955Z,1011.51
2023-03-05T03:30:09.949Z,1011.50
2023-03-05T03:31:09.953Z,1011.47
2023-03-05T03:32:09.959Z,1011.47
2023-03-05T03:33:09.900Z,1011.46
2023-03-05T03:34:09.916Z,1011.45
2023-03-05T03:35:09.911Z,1011.44
2023-03-05T03:36:09.884Z,1011.46
2023-03-05T03:37:09.858Z,1011.45
2023-03-05T03:38:09.876Z,1011.42
2023-03-05T03:39:09.855Z,1011.42
2023-03-05T03:40:09.881Z,1011.41
2023-03-05T03:41:09.855Z,1011.40
2023-03-05T03:42:09.908Z,1011.40
2023-03-05T03:43:09.842Z,1011.38
2023-03-05T03:44:09.837Z,1011.36
2023-03-05T03:45:09.772Z,1011.33
2023-03-05T03:46:09.956Z,1011.31
2023-03-05T03:47:09.827Z,1011.30
2023-03-05T03:48:09.790Z,1011.28
2023-03-05T03:49:09.760Z,1011.27
2023-03-05T03:50:09.748Z,1011.25
2023-03-05T03:51:09.757Z,1011.24
2023-03-05T03:52:09.771Z,1011.22
2023-03-05T03:53:09.729Z,1011.21
2023-03-05T03:54:09.718Z,1011.21
2023-03-05T03:55:09.702Z,1011.22
2023-03-05T03:56:09.676Z,1011.23
2023-03-05T03:57:09.676Z,1011.24
2023-03-05T03:58:09.661Z,1011.21
2023-03-05T03:59:09.649Z,1011.19
2023-03-05T04:00:09.665Z,1011.17
2023-03-05T04:01:09.634Z,1011.18
2023-03-05T04:02:09.672Z,1011.15
2023-03-05T04:03:09.662Z,1011.14
2023-03-05T04:04:09.640Z,1011.13
2023-03-05T04:05:09.609Z,1011.12
2023-03-05T04:06:09.584Z,1011.11
2023-03-05T04:07:09.579Z,1011.11
2023-03-05T04:08:09.572Z,1011.11
2023-03-05T04:09:09.534Z,1011.11
2023-03-05T04:10:09.535Z,1011.10
2023-03-05T04:11:09.540Z,1011.08
2023-03-05T04:12:09.515Z,1011.07
2023-03-05T04:13:09.491Z,1011.05
2023-03-05T04:14:09.499Z,1011.04
2023-03-05T04:15:09.465Z,1011.03
2023-03-05T04:16:09.538Z,1011.03
2023-03-05T04:17:09.463Z,1011.02
2023-03-05T04:18:09.456Z,1011.01
2023-03-05T04:19:09.428Z,1011.01
2023-03-05T04:20:09.432Z,1010.98
2023-03-05T04:21:09.407Z,1010.98
2023-03-05T04:22:09.443Z,1010.96
2023-03-05T04:23:09.416Z,1010.95
2023-03-05T04:24:09.390Z,1010.96
2023-03-05T04:25:09.360Z,1010.96
2023-03-05T04:26:09.389Z,1010.97
2023-03-05T04:27:09.341Z,1010.97
2023-03-05T04:28:09.351Z,1010.97
2023-03-05T04:29:09.357Z,1010.95
2023-03-05T04:30:09.328Z,1010.96
2023-03-05T04:31:09.344Z,1010.96
2023-03-05T04:32:09.366Z,1010.96
2023-03-05T04:33:09.278Z,1010.93
2023-03-05T04:34:09.307Z,1010.91
2023-03-05T04:35:09.399Z,1010.90
2023-03-05T04:36:09.259Z,1010.90
2023-03-05T04:37:09.238Z,1010.89
2023-03-05T04:38:09.261Z,1010.88
2023-03-05T04:39:09.203Z,1010.85
2023-03-05T04:40:09.234Z,1010.88
2023-03-05T04:41:09.206Z,1010.89
2023-03-05T04:42:09.204Z,1010.87
2023-03-05T04:43:09.177Z,1010.89
2023-03-05T04:44:09.177Z,1010.87
2023-03-05T04:45:09.156Z,1010.89
2023-03-05T04:46:09.166Z,1010.87
2023-03-05T04:47:09.144Z,1010.87
2023-03-05T04:48:09.153Z,1010.89
2023-03-05T04:49:09.100Z,1010.89
2023-03-05T04:50:09.107Z,1010.89
2023-03-05T04:51:09.078Z,1010.89
2023-03-05T04:52:09.089Z,1010.87
2023-03-05T04:53:09.077Z,1010.86
2023-03-05T04:54:09.088Z,1010.86
2023-03-05T04:55:09.033Z,1010.85
2023-03-05T04:56:09.067Z,1010.86
2023-03-05T04:57:09.022Z,1010.84
2023-03-05T04:58:09.032Z,1010.83
2023-03-05T04:59:09.276Z,1010.80
2023-03-05T05:00:09.026Z,1010.79
2023-03-05T05:01:08.984Z,1010.73
2023-03-05T05:02:08.962Z,1010.69
2023-03-05T05:03:09.081Z,1010.67
2023-03-05T05:04:08.957Z,1010.66
2023-03-05T05:05:08.972Z,1010.67
2023-03-05T05:06:08.940Z,1010.67
2023-03-05T05:07:08.935Z,1010.65
2023-03-05T05:08:08.903Z,1010.65
2023-03-05T05:09:08.926Z,1010.64
2023-03-05T05:10:08.883Z,1010.63
2023-03-05T05:11:08.920Z,1010.62
2023-03-05T05:12:08.869Z,1010.59
2023-03-05T05:13:08.880Z,1010.58
2023-03-05T05:14:08.863Z,1010.58
2023-03-05T05:15:08.901Z,1010.59
2023-03-05T05:16:08.939Z,1010.58
2023-03-05T05:17:08.864Z,1010.58
2023-03-05T05:18:08.825Z,1010.62
2023-03-05T05:19:08.876Z,1010.53
2023-03-05T05:20:08.812Z,1010.57
2023-03-05T05:21:08.805Z,1010.56
2023-03-05T05:22:08.774Z,1010.52
2023-03-05T05:23:08.800Z,1010.52
2023-03-05T05:24:08.747Z,1010.51
2023-03-05T05:25:08.769Z,1010.53
2023-03-05T05:26:08.717Z,1010.56
2023-03-05T05:27:08.751Z,1010.52
2023-03-05T05:28:08.698Z,1010.53
2023-03-05T05:29:08.726Z,1010.53
2023-03-05T05:30:08.688Z,1010.51
2023-03-05T05:31:08.783Z,1010.48
2023-03-05T05:32:08.689Z,1010.50
2023-03-05T05:33:08.678Z,1010.46
2023-03-05T05:34:08.634Z,1010.41
2023-03-05T05:35:08.670Z,1010.39
2023-03-05T05:36:08.621Z,1010.37
2023-03-05T05:37:08.626Z,1010.37
2023-03-05T05:38:08.600Z,1010.41
2023-03-05T05:39:08.614Z,1010.39
2023-03-05T05:40:08.594Z,1010.37
2023-03-05T05:41:08.613Z,1010.37
2023-03-05T05:42:08.609Z,1010.37
2023-03-05T05:43:08.576Z,1010.35
2023-03-05T05:44:08.545Z,1010.35
2023-03-05T05:45:08.675Z,1010.31
2023-03-05T05:46:08.671Z,1010.30
2023-03-05T05:47:08.702Z,1010.29
2023-03-05T05:48:08.516Z,1010.28
2023-03-05T05:49:08.516Z,1010.28
2023-03-05T05:50:08.479Z,1010.28
2023-03-05T05:51:08.490Z,1010.26
2023-03-05T05:52:08.458Z,1010.26
2023-03-05T05:53:08.488Z,1010.31
2023-03-05T05:54:08.442Z,1010.31
2023-03-05T05:55:08.454Z,1010.36
2023-03-05T05:56:08.418Z,1010.39
2023-03-05T05:57:08.471Z,1010.45
2023-03-05T05:58:08.393Z,1010.50
2023-03-05T05:59:08.421Z,1010.52
2023-03-05T06:00:08.374Z,1010.52
2023-03-05T06:01:08.394Z,1010.52
2023-03-05T06:02:08.399Z,1010.51
2023-03-05T06:03:08.436Z,1010.50
2023-03-05T06:04:08.333Z,1010.50
2023-03-05T06:05:08.382Z,1010.50
2023-03-05T06:06:08.312Z,1010.47
2023-03-05T06:07:08.338Z,1010.50
2023-03-05T06:08:08.291Z,1010.49
2023-03-05T06:09:08.304Z,1010.49
2023-03-05T06:10:08.270Z,1010.49
2023-03-05T06:11:08.330Z,1010.50
2023-03-05T06:12:08.251Z,1010.51
2023-03-05T06:13:08.272Z,1010.49
2023-03-05T06:14:08.240Z,1010.50
2023-03-05T06:15:08.253Z,1010.48
2023-03-05T06:16:08.274Z,1010.48
2023-03-05T06:17:08.958Z,1010.49
2023-03-05T06:18:08.188Z,1010.48
2023-03-05T06:19:08.206Z,1010.48
2023-03-05T06:20:08.178Z,1010.45
2023-03-05T06:21:08.197Z,1010.45
2023-03-05T06:22:08.152Z,1010.45
2023-03-05T06:23:08.188Z,1010.43
2023-03-05T06:24:08.163Z,1010.41
2023-03-05T06:25:08.150Z,1010.40
2023-03-05T06:26:08.111Z,1010.40
2023-03-05T06:27:08.130Z,1010.41
2023-03-05T06:28:08.094Z,1010.40
2023-03-05T06:29:08.126Z,1010.38
2023-03-05T06:30:08.074Z,1010.38
2023-03-05T06:31:08.153Z,1010.38
2023-03-05T06:32:08.072Z,1010.36
2023-03-05T06:33:08.107Z,1010.40
2023-03-05T06:34:08.026Z,1010.42
2023-03-05T06:35:08.077Z,1010.43
2023-03-05T06:36:08.006Z,1010.44
2023-03-05T06:37:08.013Z,1010.43
2023-03-05T06:38:08.006Z,1010.41
2023-03-05T06:39:07.998Z,1010.41
2023-03-05T06:40:07.982Z,1010.42
2023-03-05T06:41:08.005Z,1010.42
2023-03-05T06:42:07.950Z,1010.39
2023-03-05T06:43:07.989Z,1010.40
2023-03-05T06:44:07.936Z,1010.39
2023-03-05T06:45:07.995Z,1010.40
2023-03-05T06:46:08.006Z,1010.41
2023-03-05T06:47:07.935Z,1010.40
2023-03-05T06:48:07.883Z,1010.40
2023-03-05T06:49:07.897Z,1010.39
2023-03-05T06:50:07.864Z,1010.40
2023-03-05T06:51:08.099Z,1010.41
2023-03-05T06:52:07.848Z,1010.42
2023-03-05T06:53:07.868Z,1010.42
2023-03-05T06:54:07.826Z,1010.44
2023-03-05T06:55:07.829Z,1010.40
2023-03-05T06:56:07.798Z,1010.41
2023-03-05T06:57:07.818Z,1010.41
2023-03-05T06:58:07.784Z,1010.39
2023-03-05T06:59:07.826Z,1010.41
2023-03-05T07:00:07.754Z,1010.39
2023-03-05T07:01:07.804Z,1010.39
2023-03-05T07:02:07.850Z,1010.38
2023-03-05T07:03:07.757Z,1010.38
2023-03-05T07:04:07.713Z,1010.39
2023-03-05T07:05:07.748Z,1010.41
2023-03-05T07:06:07.695Z,1010.38
2023-03-05T07:07:07.707Z,1010.38
2023-03-05T07:08:07.675Z,1010.36
2023-03-05T07:09:07.696Z,1010.37
2023-03-05T07:10:07.655Z,1010.35
2023-03-05T07:11:07.682Z,1010.35
2023-03-05T07:12:07.635Z,1010.33
2023-03-05T07:13:07.646Z,1010.31
2023-03-05T07:14:07.618Z,1010.29
2023-03-05T07:15:07.625Z,1010.26
2023-03-05T07:16:07.625Z,1010.27
2023-03-05T07:17:07.623Z,1010.25
2023-03-05T07:18:07.574Z,1010.26
2023-03-05T07:19:07.588Z,1010.24
2023-03-05T07:20:07.549Z,1010.24
2023-03-05T07:21:07.568Z,1010.25
2023-03-05T07:22:07.542Z,1010.24
2023-03-05T07:23:07.559Z,1010.22
2023-03-05T07:24:07.507Z,1010.20
2023-03-05T07:25:07.524Z,1010.18
2023-03-05T07:26:07.530Z,1010.20
2023-03-05T07:27:07.505Z,1010.16
2023-03-05T07:28:07.513Z,1010.16
2023-03-05T07:29:07.517Z,1010.13
2023-03-05T07:30:07.446Z,1010.14
2023-03-05T07:31:07.505Z,1010.13
2023-03-05T07:32:07.489Z,1010.13
2023-03-05T07:33:07.459Z,1010.13
2023-03-05T07:34:07.418Z,1010.12
2023-03-05T07:35:07.444Z,1010.15
2023-03-05T07:36:07.385Z,1010.12
2023-03-05T07:37:07.410Z,1010.11
2023-03-05T07:38:07.363Z,1010.13
2023-03-05T07:39:07.376Z,1010.15
2023-03-05T07:40:07.346Z,1010.16
2023-03-05T07:41:07.385Z,1010.13
2023-03-05T07:42:07.349Z,1010.13
2023-03-05T07:43:07.335Z,1010.13
2023-03-05T07:44:07.305Z,1010.13
2023-03-05T07:45:07.314Z,1010.10
2023-03-05T07:46:07.351Z,1010.10
2023-03-05T07:47:07.319Z,1010.08
2023-03-05T07:48:07.262Z,1010.07
2023-03-05T07:49:07.280Z,1010.06
2023-03-05T07:50:07.245Z,1010.05
2023-03-05T07:51:07.254Z,1010.04
2023-03-05T07:52:07.225Z,1010.03
2023-03-05T07:53:07.478Z,1010.01
2023-03-05T07:54:07.199Z,1010.00
2023-03-05T07:55:07.212Z,1009.99
2023-03-05T07:56:07.185Z,1010.00
2023-03-05T07:57:07.191Z,1009.97
2023-03-05T07:58:07.161Z,1009.95
2023-03-05T07:59:07.191Z,1009.95
2023-03-05T08:00:07.147Z,1009.94
2023-03-05T08:01:07.152Z,1009.94
2023-03-05T08:02:07.189Z,1009.93
2023-03-05T08:03:07.131Z,1009.92
2023-03-05T08:04:07.139Z,1009.92
2023-03-05T08:05:07.123Z,1009.91
2023-03-05T08:06:07.077Z,1009.90
2023-03-05T08:07:07.092Z,1009.89
2023-03-05T08:08:07.055Z,1009.87
2023-03-05T08:09:07.086Z,1009.86
2023-03-05T08:10:07.064Z,1009.88
2023-03-05T08:11:07.111Z,1009.87
2023-03-05T08:12:07.016Z,1009.85
2023-03-05T08:13:07.033Z,1009.83
2023-03-05T08:14:07.020Z,1009.82
2023-03-05T08:15:07.041Z,1009.82
2023-03-05T08:16:07.013Z,1009.85
2023-03-05T08:17:07.013Z,1009.86
2023-03-05T08:18:07.000Z,1009.86
2023-03-05T08:19:06.994Z,1009.85
2023-03-05T08:20:06.937Z,1009.84
2023-03-05T08:21:06.981Z,1009.84
2023-03-05T08:22:06.912Z,1009.86
2023-03-05T08:23:06.942Z,1009.86
2023-03-05T08:24:06.906Z,1009.85
2023-03-05T08:25:06.910Z,1009.83
2023-03-05T08:26:06.878Z,1009.82
2023-03-05T08:27:06.896Z,1009.80
2023-03-05T08:28:06.846Z,1009.79
2023-03-05T08:29:06.873Z,1009.78
2023-03-05T08:30:06.844Z,1009.79
2023-03-05T08:31:06.851Z,1009.76
2023-03-05T08:32:06.817Z,1009.76
2023-03-05T08:33:06.839Z,1009.73
2023-03-05T08:34:06.851Z,1009.74
2023-03-05T08:35:06.830Z,1009.73
2023-03-05T08:36:06.777Z,1009.72
2023-03-05T08:37:06.812Z,1009.70
2023-03-05T08:38:06.746Z,1009.68
2023-03-05T08:39:06.831Z,1009.70
2023-03-05T08:40:06.725Z,1009.72
2023-03-05T08:41:06.768Z,1009.69
2023-03-05T08:42:08.889Z,1009.68
2023-03-05T08:43:06.748Z,1009.71
2023-03-05T08:44:06.710Z,1009.73
2023-03-05T08:45:06.785Z,1009.68
2023-03-05T08:46:06.668Z,1009.70
2023-03-05T08:47:06.752Z,1009.70
2023-03-05T08:48:06.664Z,1009.69
2023-03-05T08:49:06.664Z,1009.67
2023-03-05T08:50:06.623Z,1009.65
2023-03-05T08:51:06.635Z,1009.65
2023-03-05T08:52:06.635Z,1009.63
2023-03-05T08:53:06.635Z,1009.63
2023-03-05T08:54:06.585Z,1009.61
2023-03-05T08:55:06.623Z,1009.62
2023-03-05T08:56:06.570Z,1009.62
2023-03-05T08:57:06.585Z,1009.60
2023-03-05T08:58:06.581Z,1009.58
2023-03-05T08:59:06.598Z,1009.58
2023-03-05T09:00:06.542Z,1009.57
2023-03-05T09:01:06.550Z,1009.57
2023-03-05T09:02:06.539Z,1009.55
2023-03-05T09:03:06.526Z,1009.57
2023-03-05T09:04:06.475Z,1009.56
2023-03-05T09:05:06.504Z,1009.57
2023-03-05T09:06:06.457Z,1009.54
2023-03-05T09:07:06.468Z,1009.53
2023-03-05T09:08:06.434Z,1009.54
2023-03-05T09:09:06.446Z,1009.53
2023-03-05T09:10:06.428Z,1009.52
2023-03-05T09:11:06.464Z,1009.53
2023-03-05T09:12:06.391Z,1009.52
2023-03-05T09:13:06.426Z,1009.51
2023-03-05T09:14:06.400Z,1009.51
2023-03-05T09:15:06.388Z,1009.50
2023-03-05T09:16:06.461Z,1009.52
2023-03-05T09:17:06.383Z,1009.51
2023-03-05T09:18:06.363Z,1009.53
2023-03-05T09:19:06.330Z,1009.49
2023-03-05T09:20:06.346Z,1009.48
2023-03-05T09:21:06.304Z,1009.49
2023-03-05T09:22:06.318Z,1009.50
2023-03-05T09:23:06.325Z,1009.50
2023-03-05T09:24:06.308Z,1009.48
2023-03-05T09:25:06.267Z,1009.47
2023-03-05T09:26:06.292Z,1009.48
2023-03-05T09:27:06.262Z,1009.47
2023-03-05T09:28:06.252Z,1009.47
2023-03-05T09:29:06.240Z,1009.51
2023-03-05T09:30:06.233Z,1009.47
2023-03-05T09:31:06.205Z,1009.46
2023-03-05T09:32:06.301Z,1009.45
2023-03-05T09:33:06.179Z,1009.47
2023-03-05T09:34:06.190Z,1009.47
2023-03-05T09:35:06.170Z,1009.46
2023-03-05T09:36:06.194Z,1009.47
2023-03-05T09:37:06.133Z,1009.50
2023-03-05T09:38:06.160Z,1009.47
2023-03-05T09:39:06.119Z,1009.43
2023-03-05T09:40:06.130Z,1009.42
2023-03-05T09:41:06.116Z,1009.41
2023-03-05T09:42:06.117Z,1009.39
2023-03-05T09:43:06.084Z,1009.36
2023-03-05T09:44:06.085Z,1009.37
2023-03-05T09:45:06.057Z,1009.38
2023-03-05T09:46:06.193Z,1009.34
2023-03-05T09:47:06.101Z,1009.34
2023-03-05T09:48:06.045Z,1009.35
2023-03-05T09:49:06.008Z,1009.35
2023-03-05T09:50:06.022Z,1009.35
2023-03-05T09:51:05.999Z,1009.32
2023-03-05T09:52:06.011Z,1009.31
2023-03-05T09:53:06.014Z,1009.31
2023-03-05T09:54:05.990Z,1009.30
2023-03-05T09:55:05.950Z,1009.30
2023-03-05T09:56:05.960Z,1009.29
2023-03-05T09:57:05.928Z,1009.28
2023-03-05T09:58:05.965Z,1009.27
2023-03-05T09:59:05.937Z,1009.25
2023-03-05T10:00:05.929Z,1009.25
2023-03-05T10:01:05.885Z,1009.23
2023-03-05T10:02:05.904Z,1009.22
2023-03-05T10:03:05.965Z,1009.23
2023-03-05T10:04:05.932Z,1009.22
2023-03-05T10:05:05.863Z,1009.22
2023-03-05T10:06:05.866Z,1009.21
2023-03-05T10:07:08.441Z,1009.17
2023-03-05T10:08:05.841Z,1009.17
2023-03-05T10:09:05.819Z,1009.16
2023-03-05T10:10:05.833Z,1009.15
2023-03-05T10:11:05.809Z,1009.13
2023-03-05T10:12:05.799Z,1009.06
2023-03-05T10:13:05.767Z,1009.12
2023-03-05T10:14:05.774Z,1009.09
2023-03-05T10:15:05.748Z,1009.08
2023-03-05T10:16:05.756Z,1009.09
2023-03-05T10:17:05.759Z,1009.09
2023-03-05T10:18:05.741Z,1009.07
2023-03-05T10:19:05.698Z,1009.08
2023-03-05T10:20:05.735Z,1009.08
2023-03-05T10:21:05.694Z,1009.08
2023-03-05T10:22:05.693Z,1009.09
2023-03-05T10:23:05.682Z,1009.10
2023-03-05T10:24:05.670Z,1009.05
2023-03-05T10:25:05.634Z,1009.02
2023-03-05T10:26:05.651Z,1009.00
2023-03-05T10:27:05.670Z,1008.97
2023-03-05T10:28:05.628Z,1008.96
2023-03-05T10:29:05.622Z,1008.93
2023-03-05T10:30:05.603Z,1008.90
2023-03-05T10:31:05.572Z,1008.87
2023-03-05T10:32:05.740Z,1008.86
2023-03-05T10:33:05.562Z,1008.80
2023-03-05T10:34:05.628Z,1008.80
2023-03-05T10:35:05.566Z,1008.78
2023-03-05T10:36:05.542Z,1008.77
2023-03-05T10:37:05.534Z,1008.72
2023-03-05T10:38:05.523Z,1008.73
2023-03-05T10:39:05.495Z,1008.73
2023-03-05T10:40:05.502Z,1008.71
2023-03-05T10:41:05.487Z,1008.70
2023-03-05T10:42:05.480Z,1008.69
2023-03-05T10:43:05.454Z,1008.68
2023-03-05T10:44:05.461Z,1008.67
2023-03-05T10:45:05.429Z,1008.62
2023-03-05T10:46:05.473Z,1008.60
2023-03-05T10:47:05.423Z,1008.59
2023-03-05T10:48:05.430Z,1008.61
2023-03-05T10:49:05.385Z,1008.59
2023-03-05T10:50:05.399Z,1008.59
2023-03-05T10:51:05.387Z,1008.59
2023-03-05T10:52:05.388Z,1008.59
2023-03-05T10:53:05.437Z,1008.56
2023-03-05T10:54:05.352Z,1008.57
2023-03-05T10:55:05.341Z,1008.54
2023-03-05T10:56:05.336Z,1008.53
2023-03-05T10:57:05.302Z,1008.53
2023-03-05T10:58:05.314Z,1008.53
2023-03-05T10:59:05.320Z,1008.53
2023-03-05T11:00:05.290Z,1008.52
2023-03-05T11:01:05.374Z,1008.53
2023-03-05T11:02:05.336Z,1008.53
2023-03-05T11:03:05.243Z,1008.53
2023-03-05T11:04:05.250Z,1008.53
2023-03-05T11:05:05.337Z,1008.57
2023-03-05T11:06:05.233Z,1008.59
2023-03-05T11:07:05.209Z,1008.60
2023-03-05T11:08:05.207Z,1008.59
2023-03-05T11:09:05.167Z,1008.53
2023-03-05T11:10:05.197Z,1008.49
2023-03-05T11:11:05.195Z,1008.48
2023-03-05T11:12:05.162Z,1008.45
2023-03-05T11:13:05.128Z,1008.43
2023-03-05T11:14:05.135Z,1008.41
2023-03-05T11:15:05.113Z,1008.41
2023-03-05T11:16:05.209Z,1008.39
2023-03-05T11:17:05.106Z,1008.39
2023-03-05T11:18:05.095Z,1008.38
2023-03-05T11:19:05.063Z,1008.35
2023-03-05T11:20:05.134Z,1008.33
2023-03-05T11:21:05.061Z,1008.33
2023-03-05T11:22:05.051Z,1008.34
2023-03-05T11:23:05.038Z,1008.32
2023-03-05T11:24:05.036Z,1008.31
2023-03-05T11:25:05.010Z,1008.30
2023-03-05T11:26:05.009Z,1008.27
2023-03-05T11:27:04.979Z,1008.27
2023-03-05T11:28:04.991Z,1008.25
2023-03-05T11:29:05.020Z,1008.24
2023-03-05T11:30:04.981Z,1008.22
2023-03-05T11:31:05.005Z,1008.21
2023-03-05T11:32:05.017Z,1008.22
2023-03-05T11:33:04.917Z,1008.22
2023-03-05T11:34:04.936Z,1008.21
2023-03-05T11:35:04.925Z,1008.21
2023-03-05T11:36:04.906Z,1008.20
2023-03-05T11:37:04.873Z,1008.18
2023-03-05T11:38:04.902Z,1008.21
2023-03-05T11:39:04.857Z,1008.20
2023-03-05T11:40:04.868Z,1008.20
2023-03-05T11:41:04.851Z,1008.19
2023-03-05T11:42:04.844Z,1008.18
2023-03-05T11:43:04.809Z,1008.19
2023-03-05T11:44:04.822Z,1008.18
2023-03-05T11:45:04.786Z,1008.18
2023-03-05T11:46:04.906Z,1008.17
2023-03-05T11:47:04.793Z,1008.16
2023-03-05T11:48:04.791Z,1008.15
2023-03-05T11:49:04.746Z,1008.14
2023-03-05T11:50:04.757Z,1008.10
2023-03-05T11:51:04.742Z,1008.09
2023-03-05T11:52:04.766Z,1008.08
2023-03-05T11:53:04.724Z,1008.07
2023-03-05T11:54:04.722Z,1008.05
2023-03-05T11:55:04.683Z,1008.03
2023-03-05T11:56:04.724Z,1008.03
2023-03-05T11:57:04.665Z,1008.04
2023-03-05T11:58:04.680Z,1008.06
2023-03-05T11:59:04.667Z,1008.06
2023-03-05T12:00:04.700Z,1008.10
2023-03-05T12:01:04.626Z,1008.13
2023-03-05T12:02:04.647Z,1008.08
2023-03-05T12:03:04.656Z,1008.06
2023-03-05T12:04:04.645Z,1008.10
2023-03-05T12:05:04.608Z,1008.04